createdAt,value
2016-11-03T00:00:15.629Z,0
2016-11-03T00:01:15.606Z,0
2016-11-03T00:02:15.603Z,0
2016-11-03T00:03:15.882Z,0
2016-11-03T00:04:16.070Z,0
2016-11-03T00:05:15.850Z,0
2016-11-03T00:06:15.511Z,0
2016-11-03T00:07:15.494Z,0
2016-11-03T00:08:15.794Z,0
2016-11-03T00:09:15.502Z,0
2016-11-03T00:10:15.758Z,0
2016-11-03T00:11:15.431Z,0
2016-11-03T00:12:15.715Z,0
2016-11-03T00:13:15.709Z,0
2016-11-03T00:14:15.366Z,0
2016-11-03T00:15:15.674Z,0
2016-11-03T00:16:15.348Z,0
2016-11-03T00:17:15.631Z,0
2016-11-03T00:18:15.925Z,0
2016-11-03T00:19:15.618Z,0
2016-11-03T00:20:15.901Z,0
2016-11-03T00:21:15.277Z,0
2016-11-03T00:22:15.238Z,0
2016-11-03T00:23:15.544Z,0
2016-11-03T00:24:15.195Z,0
2016-11-03T00:25:15.501Z,0
2016-11-03T00:26:15.477Z,0
2016-11-03T00:27:15.473Z,0
2016-11-03T00:28:15.133Z,0
2016-11-03T00:29:15.111Z,0
2016-11-03T00:30:15.089Z,0
2016-11-03T00:31:15.429Z,0
2016-11-03T00:32:15.365Z,0
2016-11-03T00:33:15.035Z,0
2016-11-03T00:34:15.333Z,0
2016-11-03T00:35:15.004Z,0
2016-11-03T00:36:15.328Z,0
2016-11-03T00:37:14.958Z,0
2016-11-03T00:38:14.944Z,0
2016-11-03T00:39:14.925Z,0
2016-11-03T00:40:15.228Z,0
2016-11-03T00:41:14.891Z,0
2016-11-03T00:42:14.864Z,0
2016-11-03T00:43:14.853Z,0
2016-11-03T00:44:15.154Z,0
2016-11-03T00:45:14.815Z,0
2016-11-03T00:46:14.805Z,0
2016-11-03T00:47:14.779Z,0
2016-11-03T00:48:14.767Z,0
2016-11-03T00:49:15.059Z,0
2016-11-03T00:50:14.764Z,0
2016-11-03T00:51:14.715Z,0
2016-11-03T00:52:14.689Z,0
2016-11-03T00:53:14.704Z,0
2016-11-03T00:54:14.966Z,0
2016-11-03T00:55:14.630Z,0
2016-11-03T00:56:14.625Z,0
2016-11-03T00:57:14.630Z,0
2016-11-03T00:58:14.573Z,0
2016-11-03T00:59:14.560Z,0
2016-11-03T01:00:14.548Z,0
2016-11-03T01:01:14.532Z,0
2016-11-03T01:02:14.501Z,0
2016-11-03T01:03:14.487Z,0
2016-11-03T01:04:14.780Z,0
2016-11-03T01:05:14.452Z,0
2016-11-03T01:06:14.431Z,0
2016-11-03T01:07:14.748Z,0
2016-11-03T01:08:14.461Z,0
2016-11-03T01:09:14.688Z,0
2016-11-03T01:10:14.681Z,0
2016-11-03T01:11:14.342Z,0
2016-11-03T01:12:14.641Z,0
2016-11-03T01:13:14.618Z,0
2016-11-03T01:14:14.293Z,0
2016-11-03T01:15:14.268Z,0
2016-11-03T01:16:14.249Z,0
2016-11-03T01:17:15.003Z,0
2016-11-03T01:18:14.765Z,0
2016-11-03T01:19:14.206Z,0
2016-11-03T01:20:14.193Z,0
2016-11-03T01:21:14.158Z,0
2016-11-03T01:22:14.154Z,0
2016-11-03T01:23:14.128Z,0
2016-11-03T01:24:14.102Z,0
2016-11-03T01:25:14.084Z,0
2016-11-03T01:26:14.071Z,0
2016-11-03T01:27:14.883Z,0
2016-11-03T01:28:14.364Z,0
2016-11-03T01:29:14.327Z,0
2016-11-03T01:30:14.008Z,0
2016-11-03T01:31:13.991Z,0
2016-11-03T01:32:14.277Z,0
2016-11-03T01:33:13.991Z,0
2016-11-03T01:34:13.930Z,0
2016-11-03T01:35:13.913Z,0
2016-11-03T01:36:13.947Z,0
2016-11-03T01:37:13.869Z,0
2016-11-03T01:38:13.870Z,0
2016-11-03T01:39:13.846Z,0
2016-11-03T01:40:14.152Z,0
2016-11-03T01:41:13.802Z,0
2016-11-03T01:42:13.789Z,0
2016-11-03T01:43:13.769Z,0
2016-11-03T01:44:14.061Z,0
2016-11-03T01:45:13.732Z,0
2016-11-03T01:46:14.057Z,0
2016-11-03T01:47:13.729Z,0
2016-11-03T01:48:13.999Z,0
2016-11-03T01:49:13.662Z,0
2016-11-03T01:50:13.644Z,0
2016-11-03T01:51:13.624Z,0
2016-11-03T01:52:13.611Z,0
2016-11-03T01:53:13.635Z,0
2016-11-03T01:54:13.897Z,0
2016-11-03T01:55:13.869Z,0
2016-11-03T01:56:13.548Z,0
2016-11-03T01:57:13.518Z,0
2016-11-03T01:58:13.828Z,0
2016-11-03T01:59:13.802Z,0
2016-11-03T02:00:13.779Z,0
2016-11-03T02:01:14.099Z,0
2016-11-03T02:02:13.457Z,0
2016-11-03T02:03:13.735Z,0
2016-11-03T02:04:14.319Z,0
2016-11-03T02:05:13.699Z,0
2016-11-03T02:06:13.354Z,0
2016-11-03T02:07:13.348Z,0
2016-11-03T02:08:13.331Z,0
2016-11-03T02:09:13.625Z,0
2016-11-03T02:10:13.289Z,0
2016-11-03T02:11:13.281Z,0
2016-11-03T02:12:13.581Z,0
2016-11-03T02:13:13.240Z,0
2016-11-03T02:14:13.216Z,0
2016-11-03T02:15:13.210Z,0
2016-11-03T02:16:13.188Z,0
2016-11-03T02:17:13.171Z,0
2016-11-03T02:18:13.144Z,0
2016-11-03T02:19:13.173Z,0
2016-11-03T02:20:13.139Z,0
2016-11-03T02:21:13.091Z,0
2016-11-03T02:22:13.384Z,0
2016-11-03T02:23:13.383Z,0
2016-11-03T02:24:13.362Z,0
2016-11-03T02:25:13.025Z,0
2016-11-03T02:26:13.321Z,0
2016-11-03T02:27:12.989Z,0
2016-11-03T02:28:12.975Z,0
2016-11-03T02:29:13.268Z,0
2016-11-03T02:30:12.942Z,0
2016-11-03T02:31:13.240Z,0
2016-11-03T02:32:12.895Z,0
2016-11-03T02:33:13.193Z,0
2016-11-03T02:34:13.185Z,0
2016-11-03T02:35:12.841Z,0
2016-11-03T02:36:12.834Z,0
2016-11-03T02:37:12.809Z,0
2016-11-03T02:38:12.793Z,0
2016-11-03T02:39:13.411Z,0
2016-11-03T02:40:12.765Z,0
2016-11-03T02:41:12.744Z,0
2016-11-03T02:42:12.718Z,0
2016-11-03T02:43:12.701Z,0
2016-11-03T02:44:12.684Z,0
2016-11-03T02:45:12.981Z,0
2016-11-03T02:46:12.659Z,0
2016-11-03T02:47:12.673Z,0
2016-11-03T02:48:12.619Z,0
2016-11-03T02:49:12.599Z,0
2016-11-03T02:50:12.893Z,0
2016-11-03T02:51:12.865Z,0
2016-11-03T02:52:12.529Z,0
2016-11-03T02:53:12.516Z,0
2016-11-03T02:54:12.808Z,0
2016-11-03T02:55:12.789Z,0
2016-11-03T02:56:12.780Z,0
2016-11-03T02:57:12.440Z,0
2016-11-03T02:58:12.740Z,0
2016-11-03T02:59:12.417Z,0
2016-11-03T03:00:12.398Z,0
2016-11-03T03:01:13.010Z,0
2016-11-03T03:02:12.413Z,0
2016-11-03T03:03:13.005Z,0
2016-11-03T03:04:12.320Z,0
2016-11-03T03:05:12.346Z,0
2016-11-03T03:06:12.295Z,0
2016-11-03T03:07:12.273Z,0
2016-11-03T03:08:12.561Z,0
2016-11-03T03:09:12.858Z,0
2016-11-03T03:10:12.529Z,0
2016-11-03T03:11:12.512Z,0
2016-11-03T03:12:12.515Z,0
2016-11-03T03:13:12.164Z,0
2016-11-03T03:14:12.148Z,0
2016-11-03T03:15:12.132Z,0
2016-11-03T03:16:12.425Z,0
2016-11-03T03:17:12.404Z,0
2016-11-03T03:18:13.020Z,0
2016-11-03T03:19:12.061Z,0
2016-11-03T03:20:12.049Z,0
2016-11-03T03:21:12.338Z,0
2016-11-03T03:22:12.322Z,0
2016-11-03T03:23:11.994Z,0
2016-11-03T03:24:11.975Z,0
2016-11-03T03:25:11.951Z,0
2016-11-03T03:26:11.943Z,0
2016-11-03T03:27:12.542Z,0
2016-11-03T03:28:12.218Z,0
2016-11-03T03:29:11.884Z,0
2016-11-03T03:30:12.509Z,0
2016-11-03T03:31:11.853Z,0
2016-11-03T03:32:11.834Z,0
2016-11-03T03:33:11.819Z,0
2016-11-03T03:34:11.828Z,0
2016-11-03T03:35:11.786Z,0
2016-11-03T03:36:11.771Z,0
2016-11-03T03:37:12.054Z,0
2016-11-03T03:38:11.740Z,0
2016-11-03T03:39:11.708Z,0
2016-11-03T03:40:12.013Z,0
2016-11-03T03:41:11.673Z,0
2016-11-03T03:42:12.292Z,0
2016-11-03T03:43:11.641Z,0
2016-11-03T03:44:11.621Z,0
2016-11-03T03:45:11.612Z,0
2016-11-03T03:46:11.903Z,0
2016-11-03T03:47:11.887Z,0
2016-11-03T03:48:11.558Z,0
2016-11-03T03:49:11.543Z,0
2016-11-03T03:50:11.517Z,0
2016-11-03T03:51:11.508Z,0
2016-11-03T03:52:11.802Z,0
2016-11-03T03:53:11.468Z,0
2016-11-03T03:54:11.449Z,0
2016-11-03T03:55:11.752Z,0
2016-11-03T03:56:11.418Z,0
2016-11-03T03:57:11.399Z,0
2016-11-03T03:58:11.378Z,0
2016-11-03T03:59:11.361Z,0
2016-11-03T04:00:11.339Z,0
2016-11-03T04:01:11.341Z,0
2016-11-03T04:02:11.306Z,0
2016-11-03T04:03:11.300Z,0
2016-11-03T04:04:11.277Z,0
2016-11-03T04:05:11.253Z,0
2016-11-03T04:06:11.236Z,0
2016-11-03T04:07:11.550Z,0
2016-11-03T04:08:11.520Z,0
2016-11-03T04:09:11.198Z,0
2016-11-03T04:10:11.496Z,0
2016-11-03T04:11:11.480Z,0
2016-11-03T04:12:11.469Z,0
2016-11-03T04:13:11.431Z,0
2016-11-03T04:14:11.100Z,0
2016-11-03T04:15:11.422Z,0
2016-11-03T04:16:11.068Z,0
2016-11-03T04:17:11.085Z,0
2016-11-03T04:18:11.025Z,0
2016-11-03T04:19:11.037Z,0
2016-11-03T04:20:10.993Z,0
2016-11-03T04:21:11.000Z,0
2016-11-03T04:22:10.966Z,0
2016-11-03T04:23:10.965Z,0
2016-11-03T04:24:10.925Z,0
2016-11-03T04:25:10.910Z,0
2016-11-03T04:26:11.210Z,0
2016-11-03T04:27:10.904Z,0
2016-11-03T04:28:10.858Z,0
2016-11-03T04:29:10.838Z,0
2016-11-03T04:30:11.134Z,0
2016-11-03T04:31:10.840Z,0
2016-11-03T04:32:11.092Z,0
2016-11-03T04:33:10.772Z,0
2016-11-03T04:34:10.748Z,0
2016-11-03T04:35:11.357Z,0
2016-11-03T04:36:11.337Z,0
2016-11-03T04:37:11.037Z,0
2016-11-03T04:38:10.677Z,0
2016-11-03T04:39:10.657Z,0
2016-11-03T04:40:10.988Z,0
2016-11-03T04:41:10.657Z,0
2016-11-03T04:42:10.619Z,0
2016-11-03T04:43:10.911Z,0
2016-11-03T04:44:10.576Z,0
2016-11-03T04:45:10.560Z,0
2016-11-03T04:46:10.556Z,0
2016-11-03T04:47:10.885Z,0
2016-11-03T04:48:10.509Z,0
2016-11-03T04:49:10.816Z,0
2016-11-03T04:50:10.474Z,0
2016-11-03T04:51:10.762Z,0
2016-11-03T04:52:11.381Z,0
2016-11-03T04:53:10.417Z,0
2016-11-03T04:54:10.713Z,0
2016-11-03T04:55:10.380Z,0
2016-11-03T04:56:10.357Z,0
2016-11-03T04:57:10.355Z,0
2016-11-03T04:58:10.327Z,0
2016-11-03T04:59:10.306Z,0
2016-11-03T05:00:10.298Z,0
2016-11-03T05:01:10.936Z,0
2016-11-03T05:02:10.585Z,0
2016-11-03T05:03:10.253Z,0
2016-11-03T05:04:10.231Z,0
2016-11-03T05:05:10.207Z,0
2016-11-03T05:06:10.503Z,0
2016-11-03T05:07:10.483Z,0
2016-11-03T05:08:10.152Z,0
2016-11-03T05:09:10.147Z,0
2016-11-03T05:10:10.114Z,0
2016-11-03T05:11:10.410Z,0
2016-11-03T05:12:10.705Z,0
2016-11-03T05:13:10.066Z,0
2016-11-03T05:14:10.048Z,0
2016-11-03T05:15:10.358Z,0
2016-11-03T05:16:10.328Z,0
2016-11-03T05:17:10.015Z,0
2016-11-03T05:18:10.010Z,0
2016-11-03T05:19:10.276Z,0
2016-11-03T05:20:09.940Z,0
2016-11-03T05:21:09.918Z,0
2016-11-03T05:22:10.219Z,0
2016-11-03T05:23:09.917Z,0
2016-11-03T05:24:09.880Z,0
2016-11-03T05:25:09.853Z,0
2016-11-03T05:26:09.833Z,0
2016-11-03T05:27:09.809Z,0
2016-11-03T05:28:09.797Z,0
2016-11-03T05:29:09.781Z,0
2016-11-03T05:30:09.761Z,0
2016-11-03T05:31:09.739Z,0
2016-11-03T05:32:09.739Z,0
2016-11-03T05:33:09.711Z,0
2016-11-03T05:34:10.040Z,0
2016-11-03T05:35:09.997Z,0
2016-11-03T05:36:09.653Z,0
2016-11-03T05:37:09.954Z,0
2016-11-03T05:38:10.249Z,0
2016-11-03T05:39:09.922Z,0
2016-11-03T05:40:09.589Z,0
2016-11-03T05:41:09.911Z,0
2016-11-03T05:42:09.562Z,0
2016-11-03T05:43:09.529Z,0
2016-11-03T05:44:09.520Z,0
2016-11-03T05:45:09.493Z,0
2016-11-03T05:46:09.480Z,0
2016-11-03T05:47:09.490Z,0
2016-11-03T05:48:09.760Z,0
2016-11-03T05:49:09.736Z,0
2016-11-03T05:50:09.409Z,0
2016-11-03T05:51:09.696Z,0
2016-11-03T05:52:09.368Z,0
2016-11-03T05:53:09.352Z,0
2016-11-03T05:54:09.679Z,0
2016-11-03T05:55:09.316Z,0
2016-11-03T05:56:09.663Z,0
2016-11-03T05:57:09.286Z,0
2016-11-03T05:58:09.265Z,0
2016-11-03T05:59:09.251Z,0
2016-11-03T06:00:09.860Z,0
2016-11-03T06:01:09.222Z,0
2016-11-03T06:02:09.194Z,0
2016-11-03T06:03:09.181Z,0
2016-11-03T06:04:09.783Z,0
2016-11-03T06:05:09.662Z,0
2016-11-03T06:06:09.122Z,0
2016-11-03T06:07:09.110Z,0
2016-11-03T06:08:09.423Z,0
2016-11-03T06:09:09.403Z,0
2016-11-03T06:10:09.053Z,0
2016-11-03T06:11:09.350Z,0
2016-11-03T06:12:09.018Z,0
2016-11-03T06:13:09.009Z,0
2016-11-03T06:14:09.302Z,0
2016-11-03T06:15:08.974Z,0
2016-11-03T06:16:09.259Z,0
2016-11-03T06:17:08.940Z,0
2016-11-03T06:18:08.921Z,0
2016-11-03T06:19:09.537Z,0
2016-11-03T06:20:09.201Z,0
2016-11-03T06:21:08.879Z,0
2016-11-03T06:22:08.843Z,0
2016-11-03T06:23:08.828Z,0
2016-11-03T06:24:08.808Z,0
2016-11-03T06:25:09.112Z,0
2016-11-03T06:26:08.774Z,0
2016-11-03T06:27:08.758Z,0
2016-11-03T06:28:08.776Z,0
2016-11-03T06:29:08.743Z,0
2016-11-03T06:30:09.029Z,0
2016-11-03T06:31:08.686Z,5
2016-11-03T06:32:08.986Z,5
2016-11-03T06:33:08.657Z,5
2016-11-03T06:34:08.948Z,5
2016-11-03T06:35:08.931Z,5
2016-11-03T06:36:08.632Z,5
2016-11-03T06:37:08.913Z,5
2016-11-03T06:38:09.202Z,5
2016-11-03T06:39:08.550Z,5
2016-11-03T06:40:08.527Z,5
2016-11-03T06:41:08.553Z,10
2016-11-03T06:42:08.488Z,10
2016-11-03T06:43:08.786Z,10
2016-11-03T06:44:08.461Z,10
2016-11-03T06:45:08.471Z,10
2016-11-03T06:46:08.422Z,10
2016-11-03T06:47:08.406Z,10
2016-11-03T06:48:08.401Z,10
2016-11-03T06:49:08.372Z,10
2016-11-03T06:50:08.669Z,10
2016-11-03T06:51:08.336Z,10
2016-11-03T06:52:08.634Z,10
2016-11-03T06:53:08.943Z,10
2016-11-03T06:54:08.284Z,10
2016-11-03T06:55:08.306Z,10
2016-11-03T06:56:08.565Z,10
2016-11-03T06:57:08.547Z,15
2016-11-03T06:58:08.211Z,15
2016-11-03T06:59:08.198Z,15
2016-11-03T07:00:08.174Z,15
2016-11-03T07:01:08.485Z,15
2016-11-03T07:02:08.155Z,15
2016-11-03T07:03:08.436Z,15
2016-11-03T07:04:08.104Z,15
2016-11-03T07:05:08.411Z,15
2016-11-03T07:06:08.070Z,10
2016-11-03T07:07:08.054Z,15
2016-11-03T07:08:08.035Z,15
2016-11-03T07:09:08.015Z,15
2016-11-03T07:10:07.998Z,20
2016-11-03T07:11:08.306Z,25
2016-11-03T07:12:07.970Z,30
2016-11-03T07:13:07.945Z,30
2016-11-03T07:14:07.927Z,30
2016-11-03T07:15:07.912Z,15
2016-11-03T07:16:07.895Z,15
2016-11-03T07:17:07.880Z,20
2016-11-03T07:18:08.210Z,25
2016-11-03T07:19:08.160Z,30
2016-11-03T07:20:08.152Z,35
2016-11-03T07:21:07.812Z,35
2016-11-03T07:22:07.999Z,35
2016-11-03T07:23:08.405Z,35
2016-11-03T07:24:07.751Z,35
2016-11-03T07:25:07.752Z,30
2016-11-03T07:26:07.777Z,30
2016-11-03T07:27:07.708Z,25
2016-11-03T07:28:07.721Z,25
2016-11-03T07:29:07.694Z,25
2016-11-03T07:30:08.603Z,25
2016-11-03T07:31:07.951Z,25
2016-11-03T07:32:08.277Z,20
2016-11-03T07:33:08.536Z,25
2016-11-03T07:34:07.582Z,30
2016-11-03T07:35:07.560Z,35
2016-11-03T07:36:07.868Z,35
2016-11-03T07:37:07.529Z,30
2016-11-03T07:38:07.834Z,30
2016-11-03T07:39:07.804Z,30
2016-11-03T07:40:07.792Z,30
2016-11-03T07:41:07.455Z,30
2016-11-03T07:42:07.437Z,25
2016-11-03T07:43:07.418Z,30
2016-11-03T07:44:07.717Z,35
2016-11-03T07:45:07.698Z,40
2016-11-03T07:46:07.374Z,35
2016-11-03T07:47:07.358Z,35
2016-11-03T07:48:07.344Z,40
2016-11-03T07:49:07.316Z,40
2016-11-03T07:50:07.306Z,45
2016-11-03T07:51:07.600Z,40
2016-11-03T07:52:07.264Z,40
2016-11-03T07:53:07.542Z,40
2016-11-03T07:54:07.896Z,45
2016-11-03T07:55:07.218Z,50
2016-11-03T07:56:07.834Z,60
2016-11-03T07:57:07.811Z,65
2016-11-03T07:58:07.791Z,60
2016-11-03T07:59:07.144Z,60
2016-11-03T08:00:07.129Z,60
2016-11-03T08:01:07.419Z,65
2016-11-03T08:02:07.091Z,60
2016-11-03T08:03:07.386Z,65
2016-11-03T08:04:07.056Z,65
2016-11-03T08:05:07.871Z,65
2016-11-03T08:06:07.655Z,55
2016-11-03T08:07:07.037Z,50
2016-11-03T08:08:06.989Z,65
2016-11-03T08:09:06.975Z,60
2016-11-03T08:10:07.271Z,70
2016-11-03T08:11:06.944Z,80
2016-11-03T08:12:06.927Z,95
2016-11-03T08:13:06.903Z,85
2016-11-03T08:14:07.199Z,75
2016-11-03T08:15:06.880Z,70
2016-11-03T08:16:07.171Z,65
2016-11-03T08:17:07.148Z,70
2016-11-03T08:18:06.834Z,75
2016-11-03T08:19:06.798Z,75
2016-11-03T08:20:06.792Z,75
2016-11-03T08:21:06.776Z,85
2016-11-03T08:22:07.274Z,90
2016-11-03T08:23:07.054Z,95
2016-11-03T08:24:06.755Z,95
2016-11-03T08:25:07.021Z,80
2016-11-03T08:26:06.686Z,70
2016-11-03T08:27:06.681Z,70
2016-11-03T08:28:06.649Z,70
2016-11-03T08:29:06.636Z,75
2016-11-03T08:30:06.620Z,75
2016-11-03T08:31:06.610Z,80
2016-11-03T08:32:06.595Z,80
2016-11-03T08:33:06.574Z,70
2016-11-03T08:34:06.866Z,70
2016-11-03T08:35:06.535Z,75
2016-11-03T08:36:07.150Z,95
2016-11-03T08:37:06.502Z,85
2016-11-03T08:38:06.805Z,75
2016-11-03T08:39:06.477Z,90
2016-11-03T08:40:06.470Z,95
2016-11-03T08:41:06.435Z,95
2016-11-03T08:42:06.461Z,105
2016-11-03T08:43:06.401Z,95
2016-11-03T08:44:06.393Z,90
2016-11-03T08:45:06.379Z,90
2016-11-03T08:46:06.396Z,105
2016-11-03T08:47:06.341Z,120
2016-11-03T08:48:06.640Z,150
2016-11-03T08:49:06.310Z,175
2016-11-03T08:50:06.302Z,210
2016-11-03T08:51:06.277Z,240
2016-11-03T08:52:06.605Z,250
2016-11-03T08:53:06.567Z,295
2016-11-03T08:54:06.243Z,260
2016-11-03T08:55:06.524Z,230
2016-11-03T08:56:06.235Z,210
2016-11-03T08:57:06.512Z,205
2016-11-03T08:58:06.491Z,205
2016-11-03T08:59:06.469Z,195
2016-11-03T09:00:06.459Z,150
2016-11-03T09:01:06.120Z,105
2016-11-03T09:02:06.419Z,135
2016-11-03T09:03:06.732Z,125
2016-11-03T09:04:06.391Z,90
2016-11-03T09:05:06.375Z,90
2016-11-03T09:06:06.048Z,95
2016-11-03T09:07:06.031Z,105
2016-11-03T09:08:06.018Z,125
2016-11-03T09:09:06.327Z,115
2016-11-03T09:10:06.308Z,95
2016-11-03T09:11:06.316Z,80
2016-11-03T09:12:05.953Z,65
2016-11-03T09:13:06.252Z,60
2016-11-03T09:14:05.931Z,70
2016-11-03T09:15:05.920Z,65
2016-11-03T09:16:05.894Z,75
2016-11-03T09:17:05.872Z,70
2016-11-03T09:18:05.866Z,80
2016-11-03T09:19:05.855Z,90
2016-11-03T09:20:05.840Z,80
2016-11-03T09:21:05.818Z,95
2016-11-03T09:22:06.116Z,120
2016-11-03T09:23:05.803Z,145
2016-11-03T09:24:05.772Z,145
2016-11-03T09:25:05.752Z,145
2016-11-03T09:26:06.365Z,140
2016-11-03T09:27:06.059Z,120
2016-11-03T09:28:06.059Z,110
2016-11-03T09:29:05.701Z,110
2016-11-03T09:30:05.682Z,115
2016-11-03T09:31:05.679Z,105
2016-11-03T09:32:05.958Z,95
2016-11-03T09:33:05.635Z,100
2016-11-03T09:34:05.617Z,115
2016-11-03T09:35:05.922Z,120
2016-11-03T09:36:05.898Z,120
2016-11-03T09:37:05.568Z,105
2016-11-03T09:38:05.547Z,100
2016-11-03T09:39:05.849Z,100
2016-11-03T09:40:05.535Z,95
2016-11-03T09:41:05.833Z,130
2016-11-03T09:42:06.119Z,140
2016-11-03T09:43:05.485Z,140
2016-11-03T09:44:05.893Z,135
2016-11-03T09:45:05.758Z,115
2016-11-03T09:46:06.097Z,115
2016-11-03T09:47:05.419Z,105
2016-11-03T09:48:05.409Z,110
2016-11-03T09:49:05.386Z,130
2016-11-03T09:50:05.679Z,135
2016-11-03T09:51:05.363Z,110
2016-11-03T09:52:05.357Z,115
2016-11-03T09:53:05.327Z,105
2016-11-03T09:54:05.309Z,105
2016-11-03T09:55:05.296Z,110
2016-11-03T09:56:05.274Z,120
2016-11-03T09:57:05.583Z,105
2016-11-03T09:58:05.249Z,100
2016-11-03T09:59:05.235Z,115
2016-11-03T10:00:05.527Z,125
2016-11-03T10:01:05.201Z,100
2016-11-03T10:02:05.193Z,95
2016-11-03T10:03:05.176Z,105
2016-11-03T10:04:05.161Z,100
2016-11-03T10:05:05.344Z,95
2016-11-03T10:06:05.146Z,120
2016-11-03T10:07:05.111Z,140
2016-11-03T10:08:05.099Z,140
2016-11-03T10:09:05.391Z,135
2016-11-03T10:10:05.697Z,105
2016-11-03T10:11:05.045Z,100
2016-11-03T10:12:05.031Z,90
2016-11-03T10:13:05.015Z,95
2016-11-03T10:14:05.003Z,90
2016-11-03T10:15:05.311Z,90
2016-11-03T10:16:04.978Z,90
2016-11-03T10:17:04.965Z,95
2016-11-03T10:18:05.578Z,90
2016-11-03T10:19:05.238Z,90
2016-11-03T10:20:04.914Z,95
2016-11-03T10:21:04.900Z,110
2016-11-03T10:22:05.244Z,115
2016-11-03T10:23:04.875Z,120
2016-11-03T10:24:04.852Z,125
2016-11-03T10:25:05.144Z,135
2016-11-03T10:26:04.852Z,150
2016-11-03T10:27:04.808Z,155
2016-11-03T10:28:04.792Z,200
2016-11-03T10:29:05.173Z,225
2016-11-03T10:30:04.759Z,200
2016-11-03T10:31:04.735Z,210
2016-11-03T10:32:04.729Z,200
2016-11-03T10:33:04.734Z,215
2016-11-03T10:34:04.724Z,235
2016-11-03T10:35:04.692Z,270
2016-11-03T10:36:04.680Z,280
2016-11-03T10:37:04.660Z,290
2016-11-03T10:38:04.645Z,280
2016-11-03T10:39:04.664Z,295
2016-11-03T10:40:04.626Z,300
2016-11-03T10:41:04.914Z,285
2016-11-03T10:42:04.581Z,275
2016-11-03T10:43:04.896Z,275
2016-11-03T10:44:04.876Z,290
2016-11-03T10:45:04.591Z,275
2016-11-03T10:46:04.537Z,275
2016-11-03T10:47:04.537Z,275
2016-11-03T10:48:04.492Z,250
2016-11-03T10:49:04.478Z,265
2016-11-03T10:50:04.774Z,275
2016-11-03T10:51:04.447Z,265
2016-11-03T10:52:04.449Z,275
2016-11-03T10:53:04.427Z,265
2016-11-03T10:54:04.739Z,270
2016-11-03T10:55:04.703Z,285
2016-11-03T10:56:04.375Z,255
2016-11-03T10:57:04.363Z,235
2016-11-03T10:58:04.672Z,220
2016-11-03T10:59:04.350Z,210
2016-11-03T11:00:04.329Z,245
2016-11-03T11:01:04.625Z,255
2016-11-03T11:02:04.300Z,265
2016-11-03T11:03:04.602Z,265
2016-11-03T11:04:04.271Z,245
2016-11-03T11:05:04.575Z,245
2016-11-03T11:06:04.552Z,230
2016-11-03T11:07:04.551Z,250
2016-11-03T11:08:04.536Z,260
2016-11-03T11:09:04.214Z,260
2016-11-03T11:10:04.506Z,295
2016-11-03T11:11:04.177Z,305
2016-11-03T11:12:04.519Z,340
2016-11-03T11:13:04.781Z,335
2016-11-03T11:14:04.139Z,270
2016-11-03T11:15:04.123Z,245
2016-11-03T11:16:04.521Z,260
2016-11-03T11:17:04.731Z,265
2016-11-03T11:18:04.476Z,270
2016-11-03T11:19:04.097Z,270
2016-11-03T11:20:04.690Z,260
2016-11-03T11:21:04.040Z,240
2016-11-03T11:22:04.339Z,240
2016-11-03T11:23:04.018Z,260
2016-11-03T11:24:04.013Z,265
2016-11-03T11:25:03.989Z,245
2016-11-03T11:26:04.290Z,235
2016-11-03T11:27:03.960Z,245
2016-11-03T11:28:03.950Z,215
2016-11-03T11:29:03.946Z,220
2016-11-03T11:30:04.550Z,190
2016-11-03T11:31:04.228Z,195
2016-11-03T11:32:03.895Z,180
2016-11-03T11:33:03.893Z,165
2016-11-03T11:34:04.186Z,170
2016-11-03T11:35:03.862Z,155
2016-11-03T11:36:03.850Z,165
2016-11-03T11:37:03.831Z,255
2016-11-03T11:38:04.128Z,170
2016-11-03T11:39:04.167Z,155
2016-11-03T11:40:04.438Z,145
2016-11-03T11:41:04.096Z,130
2016-11-03T11:42:04.396Z,120
2016-11-03T11:43:03.747Z,115
2016-11-03T11:44:03.741Z,120
2016-11-03T11:45:03.755Z,135
2016-11-03T11:46:04.333Z,150
2016-11-03T11:47:03.695Z,135
2016-11-03T11:48:04.002Z,140
2016-11-03T11:49:03.985Z,130
2016-11-03T11:50:03.707Z,150
2016-11-03T11:51:03.648Z,210
2016-11-03T11:52:03.624Z,245
2016-11-03T11:53:03.938Z,225
2016-11-03T11:54:03.599Z,205
2016-11-03T11:55:03.591Z,205
2016-11-03T11:56:03.616Z,195
2016-11-03T11:57:03.564Z,180
2016-11-03T11:58:03.556Z,175
2016-11-03T11:59:03.569Z,190
2016-11-03T12:00:03.525Z,190
2016-11-03T12:01:03.512Z,205
2016-11-03T12:02:03.486Z,230
2016-11-03T12:03:03.473Z,235
2016-11-03T12:04:03.465Z,230
2016-11-03T12:05:03.962Z,245
2016-11-03T12:06:03.434Z,230
2016-11-03T12:07:03.426Z,235
2016-11-03T12:08:03.416Z,235
2016-11-03T12:09:03.707Z,225
2016-11-03T12:10:03.691Z,220
2016-11-03T12:11:03.371Z,240
2016-11-03T12:12:03.671Z,240
2016-11-03T12:13:03.647Z,225
2016-11-03T12:14:03.636Z,210
2016-11-03T12:15:03.316Z,200
2016-11-03T12:16:03.299Z,170
2016-11-03T12:17:03.598Z,155
2016-11-03T12:18:03.304Z,165
2016-11-03T12:19:03.256Z,195
2016-11-03T12:20:03.555Z,185
2016-11-03T12:21:03.247Z,165
2016-11-03T12:22:03.216Z,150
2016-11-03T12:23:03.206Z,165
2016-11-03T12:24:03.191Z,175
2016-11-03T12:25:03.498Z,175
2016-11-03T12:26:03.175Z,160
2016-11-03T12:27:03.187Z,155
2016-11-03T12:28:03.478Z,150
2016-11-03T12:29:03.127Z,150
2016-11-03T12:30:03.122Z,160
2016-11-03T12:31:03.108Z,160
2016-11-03T12:32:03.103Z,145
2016-11-03T12:33:03.383Z,150
2016-11-03T12:34:03.383Z,200
2016-11-03T12:35:03.358Z,240
2016-11-03T12:36:03.033Z,230
2016-11-03T12:37:03.342Z,220
2016-11-03T12:38:03.040Z,230
2016-11-03T12:39:02.999Z,225
2016-11-03T12:40:03.046Z,220
2016-11-03T12:41:03.278Z,200
2016-11-03T12:42:02.941Z,195
2016-11-03T12:43:03.248Z,210
2016-11-03T12:44:02.923Z,220
2016-11-03T12:45:03.535Z,240
2016-11-03T12:46:03.255Z,305
2016-11-03T12:47:02.876Z,315
2016-11-03T12:48:02.867Z,295
2016-11-03T12:49:02.857Z,280
2016-11-03T12:50:03.170Z,260
2016-11-03T12:51:03.150Z,245
2016-11-03T12:52:02.816Z,260
2016-11-03T12:53:03.114Z,245
2016-11-03T12:54:02.795Z,275
2016-11-03T12:55:03.092Z,305
2016-11-03T12:56:02.766Z,300
2016-11-03T12:57:02.751Z,335
2016-11-03T12:58:02.741Z,390
2016-11-03T12:59:02.739Z,335
2016-11-03T13:00:02.715Z,355
2016-11-03T13:01:02.697Z,480
2016-11-03T13:02:02.694Z,400
2016-11-03T13:03:02.719Z,635
2016-11-03T13:04:03.010Z,615
2016-11-03T13:05:02.664Z,595
2016-11-03T13:06:02.639Z,645
2016-11-03T13:07:02.971Z,715
2016-11-03T13:08:02.616Z,650
2016-11-03T13:09:02.605Z,650
2016-11-03T13:10:02.914Z,570
2016-11-03T13:11:02.639Z,275
2016-11-03T13:12:02.941Z,275
2016-11-03T13:13:02.569Z,320
2016-11-03T13:14:02.589Z,320
2016-11-03T13:15:02.577Z,310
2016-11-03T13:16:03.176Z,310
2016-11-03T13:17:02.527Z,525
2016-11-03T13:18:02.535Z,530
2016-11-03T13:19:03.141Z,470
2016-11-03T13:20:02.820Z,595
2016-11-03T13:21:02.499Z,595
2016-11-03T13:22:02.483Z,550
2016-11-03T13:23:02.470Z,505
2016-11-03T13:24:03.099Z,285
2016-11-03T13:25:02.459Z,295
2016-11-03T13:26:02.450Z,275
2016-11-03T13:27:02.470Z,255
2016-11-03T13:28:03.070Z,325
2016-11-03T13:29:02.419Z,240
2016-11-03T13:30:02.736Z,210
2016-11-03T13:31:03.033Z,215
2016-11-03T13:32:02.395Z,200
2016-11-03T13:33:02.705Z,185
2016-11-03T13:34:02.418Z,180
2016-11-03T13:35:02.373Z,150
2016-11-03T13:36:02.374Z,130
2016-11-03T13:37:02.355Z,140
2016-11-03T13:38:02.971Z,205
2016-11-03T13:39:02.340Z,290
2016-11-03T13:40:02.321Z,185
2016-11-03T13:41:02.622Z,215
2016-11-03T13:42:02.300Z,220
2016-11-03T13:43:02.290Z,185
2016-11-03T13:44:02.281Z,170
2016-11-03T13:45:02.271Z,165
2016-11-03T13:46:02.269Z,130
2016-11-03T13:47:02.265Z,95
2016-11-03T13:48:02.248Z,75
2016-11-03T13:49:02.231Z,65
2016-11-03T13:50:02.251Z,65
2016-11-03T13:51:02.209Z,75
2016-11-03T13:52:02.194Z,90
2016-11-03T13:53:02.496Z,100
2016-11-03T13:54:02.209Z,105
2016-11-03T13:55:02.199Z,110
2016-11-03T13:56:02.188Z,115
2016-11-03T13:57:02.140Z,110
2016-11-03T13:58:02.124Z,115
2016-11-03T13:59:02.116Z,120
2016-11-03T14:00:02.102Z,130
2016-11-03T14:01:02.090Z,130
2016-11-03T14:02:02.081Z,145
2016-11-03T14:03:02.059Z,175
2016-11-03T14:04:02.363Z,220
2016-11-03T14:05:02.237Z,210
2016-11-03T14:06:02.351Z,230
2016-11-03T14:07:02.345Z,250
2016-11-03T14:08:02.640Z,240
2016-11-03T14:09:01.998Z,250
2016-11-03T14:10:01.976Z,260
2016-11-03T14:11:02.274Z,245
2016-11-03T14:12:01.953Z,225
2016-11-03T14:13:02.260Z,210
2016-11-03T14:14:01.937Z,195
2016-11-03T14:15:02.239Z,175
2016-11-03T14:16:01.901Z,170
2016-11-03T14:17:01.901Z,175
2016-11-03T14:18:02.198Z,165
2016-11-03T14:19:01.868Z,145